sensor_id;sensor_type;location;lat;lon;timestamp;P1;durP1;ratioP1;P2;durP2;ratioP2
37419;SDS011;47344;52.374;4.816;2022-09-04T00:02:40;6.5;;;3.8;;
37419;SDS011;47344;52.374;4.816;2022-09-04T00:04:33;5.7;;;3.9;;
37419;SDS011;47344;52.374;4.816;2022-09-04T00:11:51;8.1;;;3.7;;
37419;SDS011;47344;52.374;4.816;2022-09-04T00:15:21;7.4;;;4.1;;
37419;SDS011;47344;52.374;4.816;2022-09-04T00:20:35;6.7;;;4.0;;
37419;SDS011;47344;52.374;4.816;2022-09-04T00:24:05;7.7;;;4.1;;
37419;SDS011;47344;52.374;4.816;2022-09-04T00:27:33;7.9;;;4.41;;
37419;SDS011;47344;52.374;4.816;2022-09-04T00:31:05;8.0;;;4.3;;
37419;SDS011;47344;52.374;4.816;2022-09-04T00:32:58;7.2;;;4.5;;
37419;SDS011;47344;52.374;4.816;2022-09-04T00:36:33;6.2;;;4.3;;
37419;SDS011;47344;52.374;4.816;2022-09-04T00:38:14;8.2;;;5.0;;
37419;SDS011;47344;52.374;4.816;2022-09-04T00:41:42;7.8;;;4.7;;
37419;SDS011;47344;52.374;4.816;2022-09-04T00:50:09;6.0;;;4.61;;
37419;SDS011;47344;52.374;4.816;2022-09-04T00:52:00;6.2;;;4.61;;
37419;SDS011;47344;52.374;4.816;2022-09-04T00:56:23;7.3;;;5.0;;
37419;SDS011;47344;52.374;4.816;2022-09-04T01:01:43;9.71;;;5.3;;
37419;SDS011;47344;52.374;4.816;2022-09-04T01:03:22;7.3;;;5.2;;
37419;SDS011;47344;52.374;4.816;2022-09-04T01:05:26;6.8;;;4.91;;
37419;SDS011;47344;52.374;4.816;2022-09-04T01:11:42;8.2;;;5.11;;
37419;SDS011;47344;52.374;4.816;2022-09-04T01:22:47;7.6;;;5.11;;
37419;SDS011;47344;52.374;4.816;2022-09-04T01:24:40;11.0;;;5.6;;
37419;SDS011;47344;52.374;4.816;2022-09-04T01:26:39;8.9;;;5.7;;
37419;SDS011;47344;52.374;4.816;2022-09-04T01:28:23;8.71;;;5.4;;
37419;SDS011;47344;52.374;4.816;2022-09-04T01:33:43;6.8;;;5.6;;
37419;SDS011;47344;52.374;4.816;2022-09-04T01:35:29;8.6;;;5.9;;
37419;SDS011;47344;52.374;4.816;2022-09-04T01:37:18;9.6;;;6.0;;
37419;SDS011;47344;52.374;4.816;2022-09-04T01:41:00;7.2;;;5.9;;
37419;SDS011;47344;52.374;4.816;2022-09-04T01:44:24;9.4;;;6.5;;
37419;SDS011;47344;52.374;4.816;2022-09-04T01:46:08;8.4;;;6.4;;
37419;SDS011;47344;52.374;4.816;2022-09-04T01:51:38;9.71;;;6.9;;
37419;SDS011;47344;52.374;4.816;2022-09-04T01:58:42;9.0;;;7.7;;
37419;SDS011;47344;52.374;4.816;2022-09-04T02:02:10;11.7;;;9.1;;
37419;SDS011;47344;52.374;4.816;2022-09-04T02:09:25;10.3;;;8.71;;
37419;SDS011;47344;52.374;4.816;2022-09-04T02:11:11;10.9;;;8.5;;
37419;SDS011;47344;52.374;4.816;2022-09-04T02:12:54;10.5;;;8.71;;
37419;SDS011;47344;52.374;4.816;2022-09-04T02:14:46;12.5;;;9.31;;
37419;SDS011;47344;52.374;4.816;2022-09-04T02:25:40;11.9;;;9.6;;
37419;SDS011;47344;52.374;4.816;2022-09-04T02:27:24;13.3;;;10.3;;
37419;SDS011;47344;52.374;4.816;2022-09-04T02:29:18;11.4;;;9.71;;
37419;SDS011;47344;52.374;4.816;2022-09-04T02:34:41;13.1;;;10.0;;
37419;SDS011;47344;52.374;4.816;2022-09-04T02:36:27;11.2;;;9.81;;
37419;SDS011;47344;52.374;4.816;2022-09-04T02:40:01;13.2;;;10.3;;
37419;SDS011;47344;52.374;4.816;2022-09-04T02:41:54;11.8;;;9.81;;
37419;SDS011;47344;52.374;4.816;2022-09-04T02:43:43;13.8;;;9.9;;
37419;SDS011;47344;52.374;4.816;2022-09-04T02:45:36;13.7;;;10.4;;
37419;SDS011;47344;52.374;4.816;2022-09-04T02:50:56;12.8;;;10.3;;
37419;SDS011;47344;52.374;4.816;2022-09-04T02:58:51;11.8;;;10.3;;
37419;SDS011;47344;52.374;4.816;2022-09-04T03:00:44;13.2;;;10.0;;
37419;SDS011;47344;52.374;4.816;2022-09-04T03:07:46;12.8;;;10.4;;
37419;SDS011;47344;52.374;4.816;2022-09-04T03:09:34;12.7;;;10.7;;
37419;SDS011;47344;52.374;4.816;2022-09-04T03:11:22;13.4;;;10.8;;
37419;SDS011;47344;52.374;4.816;2022-09-04T03:13:06;14.2;;;10.9;;
37419;SDS011;47344;52.374;4.816;2022-09-04T03:14:53;11.8;;;10.3;;
37419;SDS011;47344;52.374;4.816;2022-09-04T03:23:33;14.4;;;11.5;;
37419;SDS011;47344;52.374;4.816;2022-09-04T03:28:01;14.0;;;11.4;;
37419;SDS011;47344;52.374;4.816;2022-09-04T03:29:40;16.11;;;12.1;;
37419;SDS011;47344;52.374;4.816;2022-09-04T03:33:10;14.9;;;11.7;;
37419;SDS011;47344;52.374;4.816;2022-09-04T03:38:39;14.9;;;12.2;;
37419;SDS011;47344;52.374;4.816;2022-09-04T03:40:31;14.3;;;12.7;;
37419;SDS011;47344;52.374;4.816;2022-09-04T03:42:16;15.0;;;12.2;;
37419;SDS011;47344;52.374;4.816;2022-09-04T03:47:58;16.7;;;12.2;;
37419;SDS011;47344;52.374;4.816;2022-09-04T03:49:50;15.6;;;11.9;;
37419;SDS011;47344;52.374;4.816;2022-09-04T03:51:38;13.2;;;11.8;;
37419;SDS011;47344;52.374;4.816;2022-09-04T03:53:28;16.0;;;12.3;;
37419;SDS011;47344;52.374;4.816;2022-09-04T03:58:50;15.3;;;12.3;;
37419;SDS011;47344;52.374;4.816;2022-09-04T04:05:21;14.3;;;12.4;;
37419;SDS011;47344;52.374;4.816;2022-09-04T04:08:02;16.11;;;13.3;;
37419;SDS011;47344;52.374;4.816;2022-09-04T04:11:42;16.3;;;13.4;;
37419;SDS011;47344;52.374;4.816;2022-09-04T04:17:28;16.9;;;12.9;;
37419;SDS011;47344;52.374;4.816;2022-09-04T04:21:12;16.3;;;14.0;;
37419;SDS011;47344;52.374;4.816;2022-09-04T04:23:09;17.3;;;14.5;;
37419;SDS011;47344;52.374;4.816;2022-09-04T04:27:01;18.41;;;14.4;;
37419;SDS011;47344;52.374;4.816;2022-09-04T04:29:02;20.5;;;16.4;;
37419;SDS011;47344;52.374;4.816;2022-09-04T04:31:01;21.5;;;15.6;;
37419;SDS011;47344;52.374;4.816;2022-09-04T04:32:54;19.11;;;15.9;;
37419;SDS011;47344;52.374;4.816;2022-09-04T04:38:50;21.1;;;16.7;;
37419;SDS011;47344;52.374;4.816;2022-09-04T04:42:56;21.4;;;17.0;;
37419;SDS011;47344;52.374;4.816;2022-09-04T04:48:26;23.8;;;17.7;;
37419;SDS011;47344;52.374;4.816;2022-09-04T04:51:51;25.5;;;18.7;;
37419;SDS011;47344;52.374;4.816;2022-09-04T04:53:41;22.1;;;17.91;;
37419;SDS011;47344;52.374;4.816;2022-09-04T04:55:31;22.5;;;17.8;;
37419;SDS011;47344;52.374;4.816;2022-09-04T04:59:07;21.5;;;18.0;;
37419;SDS011;47344;52.374;4.816;2022-09-04T05:00:56;23.5;;;18.0;;
37419;SDS011;47344;52.374;4.816;2022-09-04T05:02:45;21.6;;;18.41;;
37419;SDS011;47344;52.374;4.816;2022-09-04T05:04:36;22.5;;;19.0;;
37419;SDS011;47344;52.374;4.816;2022-09-04T05:06:23;22.0;;;18.61;;
37419;SDS011;47344;52.374;4.816;2022-09-04T05:13:32;23.0;;;19.2;;
37419;SDS011;47344;52.374;4.816;2022-09-04T05:15:22;23.9;;;19.41;;
37419;SDS011;47344;52.374;4.816;2022-09-04T05:18:58;23.0;;;19.3;;
37419;SDS011;47344;52.374;4.816;2022-09-04T05:22:30;22.4;;;19.7;;
37419;SDS011;47344;52.374;4.816;2022-09-04T05:29:39;23.5;;;20.0;;
37419;SDS011;47344;52.374;4.816;2022-09-04T05:33:14;25.1;;;20.0;;
37419;SDS011;47344;52.374;4.816;2022-09-04T05:35:03;25.5;;;20.3;;
37419;SDS011;47344;52.374;4.816;2022-09-04T05:38:43;24.2;;;20.6;;
37419;SDS011;47344;52.374;4.816;2022-09-04T05:40:45;27.0;;;20.7;;
37419;SDS011;47344;52.374;4.816;2022-09-04T05:44:32;23.4;;;20.6;;
37419;SDS011;47344;52.374;4.816;2022-09-04T05:46:27;25.8;;;20.2;;
37419;SDS011;47344;52.374;4.816;2022-09-04T05:48:21;24.8;;;20.11;;
37419;SDS011;47344;52.374;4.816;2022-09-04T05:51:10;26.9;;;21.5;;
37419;SDS011;47344;52.374;4.816;2022-09-04T05:56:01;26.1;;;21.1;;
37419;SDS011;47344;52.374;4.816;2022-09-04T05:58:58;27.0;;;20.8;;
37419;SDS011;47344;52.374;4.816;2022-09-04T06:00:48;26.5;;;21.2;;
37419;SDS011;47344;52.374;4.816;2022-09-04T06:10:08;25.8;;;21.9;;
37419;SDS011;47344;52.374;4.816;2022-09-04T06:12:59;26.8;;;22.4;;
37419;SDS011;47344;52.374;4.816;2022-09-04T06:15:35;26.7;;;22.3;;
37419;SDS011;47344;52.374;4.816;2022-09-04T06:19:33;29.0;;;21.7;;
37419;SDS011;47344;52.374;4.816;2022-09-04T06:26:00;25.3;;;20.8;;
37419;SDS011;47344;52.374;4.816;2022-09-04T06:28:40;25.6;;;21.4;;
37419;SDS011;47344;52.374;4.816;2022-09-04T06:32:22;25.6;;;21.4;;
37419;SDS011;47344;52.374;4.816;2022-09-04T06:34:11;26.2;;;22.8;;
37419;SDS011;47344;52.374;4.816;2022-09-04T06:36:59;27.1;;;22.1;;
37419;SDS011;47344;52.374;4.816;2022-09-04T06:38:49;26.4;;;21.3;;
37419;SDS011;47344;52.374;4.816;2022-09-04T06:40:45;27.0;;;21.3;;
37419;SDS011;47344;52.374;4.816;2022-09-04T06:42:36;25.9;;;21.3;;
37419;SDS011;47344;52.374;4.816;2022-09-04T06:46:22;26.9;;;21.7;;
37419;SDS011;47344;52.374;4.816;2022-09-04T06:53:46;28.1;;;22.8;;
37419;SDS011;47344;52.374;4.816;2022-09-04T06:55:37;27.9;;;22.5;;
37419;SDS011;47344;52.374;4.816;2022-09-04T07:03:33;27.1;;;22.2;;
37419;SDS011;47344;52.374;4.816;2022-09-04T07:10:46;31.5;;;24.4;;
37419;SDS011;47344;52.374;4.816;2022-09-04T07:15:19;29.1;;;23.5;;
37419;SDS011;47344;52.374;4.816;2022-09-04T07:16:16;28.7;;;24.2;;
37419;SDS011;47344;52.374;4.816;2022-09-04T07:20:08;26.6;;;22.8;;
37419;SDS011;47344;52.374;4.816;2022-09-04T07:27:23;27.6;;;23.4;;
37419;SDS011;47344;52.374;4.816;2022-09-04T07:29:20;30.5;;;24.1;;
37419;SDS011;47344;52.374;4.816;2022-09-04T07:36:26;28.4;;;23.3;;
37419;SDS011;47344;52.374;4.816;2022-09-04T07:41:48;25.3;;;21.5;;
37419;SDS011;47344;52.374;4.816;2022-09-04T07:43:33;27.6;;;23.3;;
37419;SDS011;47344;52.374;4.816;2022-09-04T07:45:25;26.3;;;22.5;;
37419;SDS011;47344;52.374;4.816;2022-09-04T08:01:41;25.7;;;21.4;;
37419;SDS011;47344;52.374;4.816;2022-09-04T08:03:37;27.1;;;22.2;;
37419;SDS011;47344;52.374;4.816;2022-09-04T08:07:13;24.0;;;20.0;;
37419;SDS011;47344;52.374;4.816;2022-09-04T08:16:51;23.6;;;20.11;;
37419;SDS011;47344;52.374;4.816;2022-09-04T08:18:48;26.1;;;20.41;;
37419;SDS011;47344;52.374;4.816;2022-09-04T08:22:41;24.5;;;21.1;;
37419;SDS011;47344;52.374;4.816;2022-09-04T08:26:54;24.0;;;20.7;;
37419;SDS011;47344;52.374;4.816;2022-09-04T08:37:28;23.9;;;20.11;;
37419;SDS011;47344;52.374;4.816;2022-09-04T08:45:22;23.5;;;19.7;;
37419;SDS011;47344;52.374;4.816;2022-09-04T08:48:22;20.5;;;18.11;;
37419;SDS011;47344;52.374;4.816;2022-09-04T08:51:53;22.8;;;18.61;;
37419;SDS011;47344;52.374;4.816;2022-09-04T08:58:03;20.2;;;17.3;;
37419;SDS011;47344;52.374;4.816;2022-09-04T09:06:35;20.41;;;18.11;;
37419;SDS011;47344;52.374;4.816;2022-09-04T09:13:59;20.0;;;17.8;;
37419;SDS011;47344;52.374;4.816;2022-09-04T09:38:44;24.8;;;18.7;;
37419;SDS011;47344;52.374;4.816;2022-09-04T09:42:46;22.1;;;18.7;;
37419;SDS011;47344;52.374;4.816;2022-09-04T09:46:04;25.0;;;19.5;;
37419;SDS011;47344;52.374;4.816;2022-09-04T09:58:35;24.2;;;20.2;;
37419;SDS011;47344;52.374;4.816;2022-09-04T10:01:06;23.2;;;19.11;;
37419;SDS011;47344;52.374;4.816;2022-09-04T10:15:05;21.1;;;17.11;;
37419;SDS011;47344;52.374;4.816;2022-09-04T10:46:44;18.7;;;15.1;;
37419;SDS011;47344;52.374;4.816;2022-09-04T11:22:29;17.3;;;13.7;;
37419;SDS011;47344;52.374;4.816;2022-09-04T11:30:26;14.7;;;10.21;;
37419;SDS011;47344;52.374;4.816;2022-09-04T11:39:43;16.2;;;11.4;;
37419;SDS011;47344;52.374;4.816;2022-09-04T11:50:21;11.6;;;9.9;;
37419;SDS011;47344;52.374;4.816;2022-09-04T11:57:03;10.0;;;7.8;;
37419;SDS011;47344;52.374;4.816;2022-09-04T12:00:58;11.2;;;9.5;;
37419;SDS011;47344;52.374;4.816;2022-09-04T12:06:38;13.5;;;10.4;;
37419;SDS011;47344;52.374;4.816;2022-09-04T12:11:09;13.1;;;8.81;;
37419;SDS011;47344;52.374;4.816;2022-09-04T12:39:07;9.71;;;7.6;;
37419;SDS011;47344;52.374;4.816;2022-09-04T12:46:24;5.9;;;4.1;;
37419;SDS011;47344;52.374;4.816;2022-09-04T12:59:27;6.5;;;3.7;;
37419;SDS011;47344;52.374;4.816;2022-09-04T13:08:43;6.7;;;3.7;;
37419;SDS011;47344;52.374;4.816;2022-09-04T13:27:32;3.7;;;3.1;;
37419;SDS011;47344;52.374;4.816;2022-09-04T13:35:11;4.3;;;3.3;;
37419;SDS011;47344;52.374;4.816;2022-09-04T13:42:07;5.8;;;3.4;;
37419;SDS011;47344;52.374;4.816;2022-09-04T13:45:38;4.61;;;3.3;;
37419;SDS011;47344;52.374;4.816;2022-09-04T13:47:20;6.1;;;3.3;;
37419;SDS011;47344;52.374;4.816;2022-09-04T13:48:58;4.91;;;2.9;;
37419;SDS011;47344;52.374;4.816;2022-09-04T13:52:28;4.7;;;2.8;;
37419;SDS011;47344;52.374;4.816;2022-09-04T13:55:58;6.4;;;4.0;;
37419;SDS011;47344;52.374;4.816;2022-09-04T14:07:56;3.7;;;2.4;;
37419;SDS011;47344;52.374;4.816;2022-09-04T14:11:22;4.91;;;2.4;;
37419;SDS011;47344;52.374;4.816;2022-09-04T14:13:34;4.0;;;2.4;;
37419;SDS011;47344;52.374;4.816;2022-09-04T14:15:32;3.0;;;2.4;;
37419;SDS011;47344;52.374;4.816;2022-09-04T14:17:39;12.8;;;3.4;;
37419;SDS011;47344;52.374;4.816;2022-09-04T14:19:33;46.4;;;5.2;;
37419;SDS011;47344;52.374;4.816;2022-09-04T14:25:09;10.0;;;2.7;;
37419;SDS011;47344;52.374;4.816;2022-09-04T14:26:54;26.1;;;6.2;;
37419;SDS011;47344;52.374;4.816;2022-09-04T14:28:44;17.11;;;4.7;;
37419;SDS011;47344;52.374;4.816;2022-09-04T14:32:14;4.8;;;2.9;;
37419;SDS011;47344;52.374;4.816;2022-09-04T14:34:02;3.6;;;2.6;;
37419;SDS011;47344;52.374;4.816;2022-09-04T14:37:57;7.9;;;4.7;;
37419;SDS011;47344;52.374;4.816;2022-09-04T14:41:48;5.3;;;3.2;;
37419;SDS011;47344;52.374;4.816;2022-09-04T14:45:43;4.1;;;2.9;;
37419;SDS011;47344;52.374;4.816;2022-09-04T14:47:42;4.61;;;2.9;;
37419;SDS011;47344;52.374;4.816;2022-09-04T14:52:50;6.9;;;3.1;;
37419;SDS011;47344;52.374;4.816;2022-09-04T14:58:03;5.9;;;3.4;;
37419;SDS011;47344;52.374;4.816;2022-09-04T15:01:38;9.71;;;3.6;;
37419;SDS011;47344;52.374;4.816;2022-09-04T15:09:11;10.4;;;3.5;;
37419;SDS011;47344;52.374;4.816;2022-09-04T15:10:54;5.2;;;3.8;;
37419;SDS011;47344;52.374;4.816;2022-09-04T15:21:30;5.3;;;3.5;;
37419;SDS011;47344;52.374;4.816;2022-09-04T15:23:18;4.8;;;2.8;;
37419;SDS011;47344;52.374;4.816;2022-09-04T15:30:16;4.41;;;3.4;;
37419;SDS011;47344;52.374;4.816;2022-09-04T15:31:58;5.11;;;3.3;;
37419;SDS011;47344;52.374;4.816;2022-09-04T15:33:38;5.5;;;3.4;;
37419;SDS011;47344;52.374;4.816;2022-09-04T15:38:57;5.11;;;3.3;;
37419;SDS011;47344;52.374;4.816;2022-09-04T15:42:30;4.1;;;2.8;;
37419;SDS011;47344;52.374;4.816;2022-09-04T15:45:59;4.61;;;3.0;;
37419;SDS011;47344;52.374;4.816;2022-09-04T15:49:41;7.9;;;3.0;;
37419;SDS011;47344;52.374;4.816;2022-09-04T15:51:25;6.5;;;3.6;;
37419;SDS011;47344;52.374;4.816;2022-09-04T15:55:04;3.7;;;3.2;;
37419;SDS011;47344;52.374;4.816;2022-09-04T15:56:52;4.7;;;3.3;;
37419;SDS011;47344;52.374;4.816;2022-09-04T16:00:35;4.61;;;3.4;;
37419;SDS011;47344;52.374;4.816;2022-09-04T16:04:06;4.2;;;3.4;;
37419;SDS011;47344;52.374;4.816;2022-09-04T16:05:53;5.4;;;3.2;;
37419;SDS011;47344;52.374;4.816;2022-09-04T16:07:37;4.7;;;3.3;;
37419;SDS011;47344;52.374;4.816;2022-09-04T16:11:07;6.1;;;3.3;;
37419;SDS011;47344;52.374;4.816;2022-09-04T16:14:41;6.1;;;3.3;;
37419;SDS011;47344;52.374;4.816;2022-09-04T16:18:07;5.5;;;3.7;;
37419;SDS011;47344;52.374;4.816;2022-09-04T16:19:54;4.1;;;3.7;;
37419;SDS011;47344;52.374;4.816;2022-09-04T16:21:41;5.4;;;3.6;;
37419;SDS011;47344;52.374;4.816;2022-09-04T16:25:10;6.5;;;3.5;;
37419;SDS011;47344;52.374;4.816;2022-09-04T16:26:58;4.8;;;3.6;;
37419;SDS011;47344;52.374;4.816;2022-09-04T16:37:19;6.2;;;3.4;;
37419;SDS011;47344;52.374;4.816;2022-09-04T16:39:05;6.3;;;4.2;;
37419;SDS011;47344;52.374;4.816;2022-09-04T16:40:45;7.6;;;4.2;;
37419;SDS011;47344;52.374;4.816;2022-09-04T16:46:02;13.6;;;10.6;;
37419;SDS011;47344;52.374;4.816;2022-09-04T16:48:04;16.11;;;12.1;;
37419;SDS011;47344;52.374;4.816;2022-09-04T16:51:35;16.5;;;14.4;;
37419;SDS011;47344;52.374;4.816;2022-09-04T16:53:19;18.2;;;14.9;;
37419;SDS011;47344;52.374;4.816;2022-09-04T16:58:43;20.2;;;16.9;;
37419;SDS011;47344;52.374;4.816;2022-09-04T17:00:26;20.9;;;17.61;;
37419;SDS011;47344;52.374;4.816;2022-09-04T17:02:22;18.7;;;15.8;;
37419;SDS011;47344;52.374;4.816;2022-09-04T17:04:18;18.0;;;15.3;;
37419;SDS011;47344;52.374;4.816;2022-09-04T17:09:55;20.11;;;16.7;;
37419;SDS011;47344;52.374;4.816;2022-09-04T17:11:39;19.11;;;16.4;;
37419;SDS011;47344;52.374;4.816;2022-09-04T17:17:03;20.0;;;16.9;;
37419;SDS011;47344;52.374;4.816;2022-09-04T17:18:47;20.11;;;16.8;;
37419;SDS011;47344;52.374;4.816;2022-09-04T17:20:27;19.8;;;16.9;;
37419;SDS011;47344;52.374;4.816;2022-09-04T17:22:42;18.91;;;15.9;;
37419;SDS011;47344;52.374;4.816;2022-09-04T17:28:11;23.7;;;18.61;;
37419;SDS011;47344;52.374;4.816;2022-09-04T17:30:01;24.8;;;19.7;;
37419;SDS011;47344;52.374;4.816;2022-09-04T17:35:18;21.8;;;18.61;;
37419;SDS011;47344;52.374;4.816;2022-09-04T17:38:54;21.6;;;18.11;;
37419;SDS011;47344;52.374;4.816;2022-09-04T17:42:35;22.3;;;17.5;;
37419;SDS011;47344;52.374;4.816;2022-09-04T17:44:29;19.7;;;17.0;;
37419;SDS011;47344;52.374;4.816;2022-09-04T17:46:20;16.4;;;14.0;;
37419;SDS011;47344;52.374;4.816;2022-09-04T17:51:35;12.4;;;9.6;;
37419;SDS011;47344;52.374;4.816;2022-09-04T17:55:03;12.6;;;8.71;;
37419;SDS011;47344;52.374;4.816;2022-09-04T17:58:28;10.7;;;7.1;;
37419;SDS011;47344;52.374;4.816;2022-09-04T18:00:15;9.6;;;6.9;;
37419;SDS011;47344;52.374;4.816;2022-09-04T18:01:59;8.6;;;6.9;;
37419;SDS011;47344;52.374;4.816;2022-09-04T18:09:23;7.4;;;6.2;;
37419;SDS011;47344;52.374;4.816;2022-09-04T18:11:08;11.4;;;6.5;;
37419;SDS011;47344;52.374;4.816;2022-09-04T18:14:45;11.2;;;8.31;;
37419;SDS011;47344;52.374;4.816;2022-09-04T18:17:00;10.4;;;7.4;;
37419;SDS011;47344;52.374;4.816;2022-09-04T18:18:43;9.71;;;7.7;;
37419;SDS011;47344;52.374;4.816;2022-09-04T18:22:19;8.81;;;7.2;;
37419;SDS011;47344;52.374;4.816;2022-09-04T18:27:28;9.0;;;6.6;;
37419;SDS011;47344;52.374;4.816;2022-09-04T18:29:48;8.71;;;7.0;;
37419;SDS011;47344;52.374;4.816;2022-09-04T18:31:36;9.1;;;6.7;;
37419;SDS011;47344;52.374;4.816;2022-09-04T18:33:20;9.0;;;7.4;;
37419;SDS011;47344;52.374;4.816;2022-09-04T18:38:37;11.5;;;8.1;;
37419;SDS011;47344;52.374;4.816;2022-09-04T18:40:20;13.1;;;7.9;;
37419;SDS011;47344;52.374;4.816;2022-09-04T18:42:08;11.4;;;7.9;;
37419;SDS011;47344;52.374;4.816;2022-09-04T18:44:20;11.5;;;8.0;;
37419;SDS011;47344;52.374;4.816;2022-09-04T18:49:25;12.5;;;8.31;;
37419;SDS011;47344;52.374;4.816;2022-09-04T18:51:04;11.9;;;8.6;;
37419;SDS011;47344;52.374;4.816;2022-09-04T18:56:22;10.8;;;7.6;;
37419;SDS011;47344;52.374;4.816;2022-09-04T19:00:53;11.0;;;7.9;;
37419;SDS011;47344;52.374;4.816;2022-09-04T19:08:09;10.1;;;7.1;;
37419;SDS011;47344;52.374;4.816;2022-09-04T19:15:19;12.5;;;8.31;;
37419;SDS011;47344;52.374;4.816;2022-09-04T19:18:52;12.2;;;8.6;;
37419;SDS011;47344;52.374;4.816;2022-09-04T19:20:37;12.7;;;9.4;;
37419;SDS011;47344;52.374;4.816;2022-09-04T19:22:31;11.3;;;9.31;;
37419;SDS011;47344;52.374;4.816;2022-09-04T19:24:19;12.5;;;8.81;;
37419;SDS011;47344;52.374;4.816;2022-09-04T19:26:06;11.8;;;8.81;;
37419;SDS011;47344;52.374;4.816;2022-09-04T19:27:55;11.6;;;8.81;;
37419;SDS011;47344;52.374;4.816;2022-09-04T19:33:10;10.6;;;8.2;;
37419;SDS011;47344;52.374;4.816;2022-09-04T19:34:59;12.9;;;8.2;;
37419;SDS011;47344;52.374;4.816;2022-09-04T19:36:46;11.2;;;8.71;;
37419;SDS011;47344;52.374;4.816;2022-09-04T19:40:16;9.31;;;7.8;;
37419;SDS011;47344;52.374;4.816;2022-09-04T19:49:24;11.5;;;8.2;;
37419;SDS011;47344;52.374;4.816;2022-09-04T19:51:23;10.6;;;8.0;;
37419;SDS011;47344;52.374;4.816;2022-09-04T19:58:52;10.9;;;8.1;;
37419;SDS011;47344;52.374;4.816;2022-09-04T20:00:34;12.7;;;8.31;;
37419;SDS011;47344;52.374;4.816;2022-09-04T20:02:20;11.8;;;9.31;;
37419;SDS011;47344;52.374;4.816;2022-09-04T20:04:08;10.8;;;8.5;;
37419;SDS011;47344;52.374;4.816;2022-09-04T20:05:53;10.9;;;8.9;;
37419;SDS011;47344;52.374;4.816;2022-09-04T20:07:39;11.6;;;8.5;;
37419;SDS011;47344;52.374;4.816;2022-09-04T20:11:10;12.5;;;8.5;;
37419;SDS011;47344;52.374;4.816;2022-09-04T20:12:55;11.0;;;8.2;;
37419;SDS011;47344;52.374;4.816;2022-09-04T20:14:44;11.1;;;8.5;;
37419;SDS011;47344;52.374;4.816;2022-09-04T20:16:28;13.2;;;9.6;;
37419;SDS011;47344;52.374;4.816;2022-09-04T20:21:40;12.5;;;9.6;;
37419;SDS011;47344;52.374;4.816;2022-09-04T20:23:22;11.9;;;9.31;;
37419;SDS011;47344;52.374;4.816;2022-09-04T20:25:10;11.5;;;9.1;;
37419;SDS011;47344;52.374;4.816;2022-09-04T20:27:06;12.8;;;9.81;;
37419;SDS011;47344;52.374;4.816;2022-09-04T20:28:52;12.0;;;9.21;;
37419;SDS011;47344;52.374;4.816;2022-09-04T20:30:44;14.7;;;9.6;;
37419;SDS011;47344;52.374;4.816;2022-09-04T20:36:10;14.4;;;9.81;;
37419;SDS011;47344;52.374;4.816;2022-09-04T20:39:33;12.4;;;10.1;;
37419;SDS011;47344;52.374;4.816;2022-09-04T20:41:17;13.6;;;10.3;;
37419;SDS011;47344;52.374;4.816;2022-09-04T20:48:24;13.2;;;10.6;;
37419;SDS011;47344;52.374;4.816;2022-09-04T20:50:22;12.8;;;10.8;;
37419;SDS011;47344;52.374;4.816;2022-09-04T20:54:02;11.8;;;10.0;;
37419;SDS011;47344;52.374;4.816;2022-09-04T20:58:17;11.4;;;9.9;;
37419;SDS011;47344;52.374;4.816;2022-09-04T21:00:43;11.4;;;9.6;;
37419;SDS011;47344;52.374;4.816;2022-09-04T21:02:33;12.1;;;9.6;;
37419;SDS011;47344;52.374;4.816;2022-09-04T21:04:28;11.5;;;9.5;;
37419;SDS011;47344;52.374;4.816;2022-09-04T21:06:18;12.4;;;9.81;;
37419;SDS011;47344;52.374;4.816;2022-09-04T21:13:21;12.2;;;9.5;;
37419;SDS011;47344;52.374;4.816;2022-09-04T21:15:06;12.4;;;9.5;;
37419;SDS011;47344;52.374;4.816;2022-09-04T21:16:54;12.3;;;9.21;;
37419;SDS011;47344;52.374;4.816;2022-09-04T21:19:06;12.2;;;9.6;;
37419;SDS011;47344;52.374;4.816;2022-09-04T21:21:03;11.2;;;9.6;;
37419;SDS011;47344;52.374;4.816;2022-09-04T21:25:37;12.6;;;10.21;;
37419;SDS011;47344;52.374;4.816;2022-09-04T21:30:14;12.5;;;9.71;;
37419;SDS011;47344;52.374;4.816;2022-09-04T21:31:59;11.0;;;9.5;;
37419;SDS011;47344;52.374;4.816;2022-09-04T21:34:29;11.7;;;9.9;;
37419;SDS011;47344;52.374;4.816;2022-09-04T21:36:28;13.6;;;10.1;;
37419;SDS011;47344;52.374;4.816;2022-09-04T21:38:17;12.4;;;10.1;;
37419;SDS011;47344;52.374;4.816;2022-09-04T21:40:35;13.0;;;10.21;;
37419;SDS011;47344;52.374;4.816;2022-09-04T21:43:07;12.2;;;9.9;;
37419;SDS011;47344;52.374;4.816;2022-09-04T21:47:03;15.3;;;11.5;;
37419;SDS011;47344;52.374;4.816;2022-09-04T21:48:59;13.8;;;11.5;;
37419;SDS011;47344;52.374;4.816;2022-09-04T21:57:02;14.6;;;12.8;;
37419;SDS011;47344;52.374;4.816;2022-09-04T22:00:17;16.2;;;12.1;;
37419;SDS011;47344;52.374;4.816;2022-09-04T22:01:58;15.1;;;11.5;;
37419;SDS011;47344;52.374;4.816;2022-09-04T22:03:49;14.4;;;12.2;;
37419;SDS011;47344;52.374;4.816;2022-09-04T22:05:40;14.1;;;11.6;;
37419;SDS011;47344;52.374;4.816;2022-09-04T22:09:15;14.0;;;12.1;;
37419;SDS011;47344;52.374;4.816;2022-09-04T22:11:07;13.7;;;11.5;;
37419;SDS011;47344;52.374;4.816;2022-09-04T22:13:18;14.9;;;11.5;;
37419;SDS011;47344;52.374;4.816;2022-09-04T22:19:18;13.6;;;10.7;;
37419;SDS011;47344;52.374;4.816;2022-09-04T22:21:23;14.6;;;11.3;;
37419;SDS011;47344;52.374;4.816;2022-09-04T22:27:00;13.2;;;11.4;;
37419;SDS011;47344;52.374;4.816;2022-09-04T22:30:09;13.2;;;11.4;;
37419;SDS011;47344;52.374;4.816;2022-09-04T22:34:27;15.3;;;11.3;;
37419;SDS011;47344;52.374;4.816;2022-09-04T22:39:29;13.8;;;12.1;;
37419;SDS011;47344;52.374;4.816;2022-09-04T22:42:22;13.5;;;11.0;;
37419;SDS011;47344;52.374;4.816;2022-09-04T22:44:41;14.2;;;11.5;;
37419;SDS011;47344;52.374;4.816;2022-09-04T22:46:41;15.5;;;11.1;;
37419;SDS011;47344;52.374;4.816;2022-09-04T22:54:13;13.1;;;10.7;;
37419;SDS011;47344;52.374;4.816;2022-09-04T22:56:13;13.9;;;10.8;;
37419;SDS011;47344;52.374;4.816;2022-09-04T22:58:00;14.7;;;11.6;;
37419;SDS011;47344;52.374;4.816;2022-09-04T23:00:05;14.9;;;10.9;;
37419;SDS011;47344;52.374;4.816;2022-09-04T23:01:53;12.2;;;10.9;;
37419;SDS011;47344;52.374;4.816;2022-09-04T23:04:21;13.4;;;11.5;;
37419;SDS011;47344;52.374;4.816;2022-09-04T23:07:30;14.2;;;11.3;;
37419;SDS011;47344;52.374;4.816;2022-09-04T23:10:33;12.8;;;10.4;;
37419;SDS011;47344;52.374;4.816;2022-09-04T23:18:58;13.9;;;11.1;;
37419;SDS011;47344;52.374;4.816;2022-09-04T23:27:32;13.8;;;10.7;;
37419;SDS011;47344;52.374;4.816;2022-09-04T23:29:34;12.5;;;9.9;;
37419;SDS011;47344;52.374;4.816;2022-09-04T23:33:28;12.0;;;9.21;;
37419;SDS011;47344;52.374;4.816;2022-09-04T23:36:36;11.7;;;9.6;;
37419;SDS011;47344;52.374;4.816;2022-09-04T23:39:07;12.8;;;10.0;;
37419;SDS011;47344;52.374;4.816;2022-09-04T23:41:59;12.4;;;10.1;;
37419;SDS011;47344;52.374;4.816;2022-09-04T23:44:09;11.8;;;10.0;;
37419;SDS011;47344;52.374;4.816;2022-09-04T23:47:34;11.5;;;9.21;;
37419;SDS011;47344;52.374;4.816;2022-09-04T23:52:05;12.4;;;10.0;;
37419;SDS011;47344;52.374;4.816;2022-09-04T23:53:55;11.4;;;9.9;;
